createdAt,value
2023-03-26T00:00:15.058Z,58.88
2023-03-26T00:03:39.144Z,59.38
2023-03-26T00:07:03.304Z,59.23
2023-03-26T00:10:27.151Z,59.50
2023-03-26T00:13:49.322Z,59.13
2023-03-26T00:17:10.914Z,58.40
2023-03-26T00:20:35.611Z,58.27
2023-03-26T00:24:06.148Z,58.56
2023-03-26T00:27:27.799Z,57.82
2023-03-26T00:30:57.198Z,58.21
2023-03-26T00:34:23.028Z,60.16
2023-03-26T00:37:46.120Z,60.19
2023-03-26T00:41:18.148Z,59.75
2023-03-26T00:44:42.091Z,58.87
2023-03-26T00:48:05.931Z,58.57
2023-03-26T00:51:31.071Z,58.29
2023-03-26T00:54:52.741Z,58.42
2023-03-26T00:58:15.444Z,58.56
2023-03-26T01:01:39.903Z,58.20
2023-03-26T01:05:36.352Z,59.42
2023-03-26T01:09:00.523Z,59.84
2023-03-26T01:12:24.644Z,59.33
2023-03-26T01:15:51.105Z,58.89
2023-03-26T01:19:38.026Z,59.28
2023-03-26T01:23:05.413Z,59.08
2023-03-26T01:27:01.536Z,58.70
2023-03-26T01:30:42.537Z,59.56
2023-03-26T01:35:01.354Z,59.77
2023-03-26T01:38:31.085Z,59.09
2023-03-26T01:41:58.813Z,59.34
2023-03-26T01:45:28.452Z,59.59
2023-03-26T01:48:55.481Z,60.22
2023-03-26T01:52:25.113Z,61.01
2023-03-26T01:55:58.392Z,60.37
2023-03-26T01:59:41.337Z,61.51
2023-03-26T02:03:17.739Z,61.84
2023-03-26T02:06:48.032Z,62.42
2023-03-26T02:10:30.755Z,62.69
2023-03-26T02:13:53.197Z,63.10
2023-03-26T02:17:14.776Z,63.34
2023-03-26T02:20:40.122Z,63.71
2023-03-26T02:24:04.402Z,63.19
2023-03-26T02:27:26.306Z,62.81
2023-03-26T02:30:49.946Z,63.18
2023-03-26T02:34:11.612Z,64.07
2023-03-26T02:37:38.341Z,64.30
2023-03-26T02:41:00.262Z,64.43
2023-03-26T02:44:21.832Z,64.43
2023-03-26T02:47:43.899Z,64.09
2023-03-26T02:51:08.512Z,64.00
2023-03-26T02:54:30.234Z,64.54
2023-03-26T02:57:54.225Z,64.10
2023-03-26T03:01:18.592Z,64.54
2023-03-26T03:04:43.997Z,64.76
2023-03-26T03:08:06.041Z,64.56
2023-03-26T03:11:30.523Z,64.51
2023-03-26T03:14:52.095Z,64.57
2023-03-26T03:18:13.647Z,64.46
2023-03-26T03:21:35.696Z,64.55
2023-03-26T03:24:59.912Z,65.26
2023-03-26T03:28:23.888Z,65.89
2023-03-26T03:31:49.955Z,66.44
2023-03-26T03:35:13.760Z,66.96
2023-03-26T03:38:35.326Z,67.95
2023-03-26T03:41:59.782Z,66.99
2023-03-26T03:45:23.976Z,65.42
2023-03-26T03:48:50.736Z,64.70
2023-03-26T03:52:14.817Z,64.44
2023-03-26T03:55:38.362Z,65.36
2023-03-26T03:58:59.945Z,66.03
2023-03-26T04:02:30.600Z,66.36
2023-03-26T04:05:57.264Z,66.18
2023-03-26T04:09:19.274Z,65.99
2023-03-26T04:12:43.564Z,64.94
2023-03-26T04:16:05.477Z,65.82
2023-03-26T04:19:29.326Z,64.92
2023-03-26T04:22:50.993Z,64.69
2023-03-26T04:26:16.827Z,65.17
2023-03-26T04:29:43.024Z,65.54
2023-03-26T04:33:10.396Z,65.49
2023-03-26T04:36:36.833Z,66.47
2023-03-26T04:39:59.280Z,66.72
2023-03-26T04:43:20.879Z,66.28
2023-03-26T04:46:45.852Z,66.20
2023-03-26T04:50:12.028Z,65.15
2023-03-26T04:53:34.527Z,64.84
2023-03-26T04:57:01.148Z,64.16
2023-03-26T05:00:25.504Z,64.25
2023-03-26T05:03:50.106Z,65.00
2023-03-26T05:07:17.590Z,64.74
2023-03-26T05:10:39.216Z,65.11
2023-03-26T05:14:03.372Z,64.38
2023-03-26T05:17:25.416Z,63.64
2023-03-26T05:20:47.037Z,61.41
2023-03-26T05:24:08.688Z,60.24
2023-03-26T05:27:33.328Z,60.04
2023-03-26T05:30:55.550Z,59.95
2023-03-26T05:34:17.312Z,59.79
2023-03-26T05:37:41.400Z,59.46
2023-03-26T05:41:06.241Z,59.21
2023-03-26T05:44:27.962Z,57.83
2023-03-26T05:47:54.227Z,57.47
2023-03-26T05:51:16.146Z,57.77
2023-03-26T05:54:37.724Z,56.87
2023-03-26T05:57:59.417Z,55.88
2023-03-26T06:01:21.038Z,55.40
2023-03-26T06:04:47.740Z,55.33
2023-03-26T06:08:09.462Z,54.68
2023-03-26T06:11:34.721Z,55.52
2023-03-26T06:14:56.363Z,55.98
2023-03-26T06:18:18.795Z,54.25
2023-03-26T06:21:40.400Z,53.20
2023-03-26T06:25:02.036Z,52.69
2023-03-26T06:28:24.101Z,52.47
2023-03-26T06:31:45.900Z,52.00
2023-03-26T06:35:11.240Z,51.23
2023-03-26T06:38:33.018Z,51.41
2023-03-26T06:41:54.622Z,50.35
2023-03-26T06:45:16.705Z,52.29
2023-03-26T06:48:38.877Z,51.50
2023-03-26T06:52:02.977Z,49.68
2023-03-26T06:55:27.368Z,51.30
2023-03-26T06:58:51.468Z,50.62
2023-03-26T07:02:13.146Z,49.63
2023-03-26T07:05:37.443Z,49.32
2023-03-26T07:08:59.062Z,49.05
2023-03-26T07:12:23.243Z,47.72
2023-03-26T07:15:48.071Z,46.34
2023-03-26T07:19:12.162Z,46.54
2023-03-26T07:22:34.468Z,48.01
2023-03-26T07:25:56.405Z,48.09
2023-03-26T07:29:46.614Z,46.64
2023-03-26T07:33:21.116Z,45.10
2023-03-26T07:37:13.685Z,45.55
2023-03-26T07:40:51.882Z,45.53
2023-03-26T07:44:35.828Z,47.43
2023-03-26T07:48:00.391Z,47.36
2023-03-26T07:51:25.332Z,47.37
2023-03-26T07:54:47.361Z,45.90
2023-03-26T07:58:29.815Z,46.01
2023-03-26T08:02:51.077Z,44.98
2023-03-26T08:06:24.031Z,43.48
2023-03-26T08:10:02.025Z,44.17
2023-03-26T08:13:44.551Z,45.46
2023-03-26T08:17:21.332Z,46.96
2023-03-26T08:20:49.212Z,47.11
2023-03-26T08:24:25.333Z,45.64
2023-03-26T08:28:28.132Z,44.98
2023-03-26T08:31:53.129Z,44.45
2023-03-26T08:35:19.608Z,44.22
2023-03-26T08:38:41.268Z,45.81
2023-03-26T08:43:00.468Z,45.26
2023-03-26T08:46:59.370Z,45.52
2023-03-26T08:51:13.545Z,46.51
2023-03-26T08:54:52.255Z,47.06
2023-03-26T08:58:47.820Z,46.63
2023-03-26T09:02:51.071Z,47.50
2023-03-26T09:06:50.622Z,46.83
2023-03-26T09:10:14.589Z,47.01
2023-03-26T09:14:06.086Z,46.12
2023-03-26T09:17:46.564Z,47.01
2023-03-26T09:21:36.170Z,46.63
2023-03-26T09:25:08.847Z,46.61
2023-03-26T09:28:51.406Z,46.85
2023-03-26T09:32:50.008Z,46.68
2023-03-26T09:36:19.612Z,45.76
2023-03-26T09:39:53.245Z,44.97
2023-03-26T09:43:32.677Z,45.23
2023-03-26T09:47:23.648Z,43.77
2023-03-26T09:50:59.341Z,43.50
2023-03-26T09:54:56.982Z,42.20
2023-03-26T09:58:48.723Z,40.82
2023-03-26T10:02:16.116Z,41.36
2023-03-26T10:05:48.329Z,39.56
2023-03-26T10:09:44.872Z,38.72
2023-03-26T10:13:18.085Z,37.95
2023-03-26T10:16:56.553Z,39.77
2023-03-26T10:20:49.390Z,38.63
2023-03-26T10:24:13.968Z,39.12
2023-03-26T10:27:38.579Z,40.04
2023-03-26T10:31:06.496Z,42.24
2023-03-26T10:34:58.892Z,41.64
2023-03-26T10:38:42.212Z,42.68
2023-03-26T10:42:24.589Z,45.59
2023-03-26T10:46:25.449Z,53.53
2023-03-26T10:50:05.426Z,58.82
2023-03-26T10:53:57.125Z,59.15
2023-03-26T10:57:33.842Z,59.86
2023-03-26T11:01:00.896Z,56.37
2023-03-26T11:04:48.492Z,54.89
2023-03-26T11:08:31.658Z,52.60
2023-03-26T11:12:26.991Z,50.05
2023-03-26T11:16:02.806Z,47.17
2023-03-26T11:19:32.848Z,47.80
2023-03-26T11:23:14.889Z,48.12
2023-03-26T11:26:49.326Z,49.23
2023-03-26T11:30:32.620Z,50.25
2023-03-26T11:33:58.825Z,48.67
2023-03-26T11:37:33.353Z,48.01
2023-03-26T11:40:57.351Z,46.62
2023-03-26T11:44:37.773Z,47.06
2023-03-26T11:48:15.680Z,46.07
2023-03-26T11:51:42.892Z,45.71
2023-03-26T11:55:08.059Z,43.96
2023-03-26T11:58:52.099Z,41.54
2023-03-26T12:02:17.178Z,40.23
2023-03-26T12:05:49.238Z,40.69
2023-03-26T12:09:20.164Z,40.61
2023-03-26T12:12:42.457Z,39.59
2023-03-26T12:16:17.634Z,41.01
2023-03-26T12:19:44.613Z,38.76
2023-03-26T12:23:46.379Z,39.19
2023-03-26T12:27:23.107Z,39.21
2023-03-26T12:31:07.519Z,39.85
2023-03-26T12:34:35.457Z,39.10
2023-03-26T12:38:17.209Z,40.25
2023-03-26T12:44:43.803Z,41.04
2023-03-26T12:45:29.733Z,40.13
2023-03-26T12:48:56.862Z,40.40
2023-03-26T12:52:30.937Z,39.48
2023-03-26T12:56:10.549Z,40.38
2023-03-26T12:59:49.472Z,38.84
2023-03-26T13:03:41.860Z,40.14
2023-03-26T13:07:25.163Z,41.23
2023-03-26T13:11:02.812Z,40.73
2023-03-26T13:14:46.242Z,35.48
2023-03-26T13:18:48.082Z,36.33
2023-03-26T13:22:24.566Z,35.87
2023-03-26T13:25:52.063Z,35.69
2023-03-26T13:29:39.671Z,36.06
2023-03-26T13:33:16.082Z,34.99
2023-03-26T13:36:58.080Z,35.58
2023-03-26T13:40:55.214Z,36.81
2023-03-26T13:44:48.541Z,37.59
2023-03-26T13:48:27.172Z,36.78
2023-03-26T13:51:48.593Z,36.98
2023-03-26T13:55:31.909Z,37.02
2023-03-26T13:59:03.674Z,36.52
2023-03-26T14:02:39.196Z,36.41
2023-03-26T14:06:06.883Z,36.82
2023-03-26T14:09:55.423Z,36.09
2023-03-26T14:13:26.981Z,34.45
2023-03-26T14:16:54.064Z,33.71
2023-03-26T14:20:20.984Z,34.62
2023-03-26T14:24:09.654Z,34.82
2023-03-26T14:27:49.587Z,34.94
2023-03-26T14:31:19.550Z,34.50
2023-03-26T14:35:18.579Z,34.01
2023-03-26T14:38:59.345Z,34.70
2023-03-26T14:42:43.495Z,34.00
2023-03-26T14:46:17.079Z,33.44
2023-03-26T14:50:03.954Z,34.49
2023-03-26T14:53:34.713Z,34.03
2023-03-26T14:57:24.198Z,31.31
2023-03-26T15:01:07.714Z,31.21
2023-03-26T15:04:31.548Z,31.17
2023-03-26T15:08:41.025Z,31.92
2023-03-26T15:12:32.983Z,32.85
2023-03-26T15:16:12.938Z,33.58
2023-03-26T15:19:55.657Z,34.73
2023-03-26T15:23:54.872Z,32.26
2023-03-26T15:27:57.378Z,32.05
2023-03-26T15:31:30.999Z,32.51
2023-03-26T15:34:57.667Z,32.73
2023-03-26T15:38:41.457Z,33.40
2023-03-26T15:42:11.772Z,34.36
2023-03-26T15:45:48.622Z,35.31
2023-03-26T15:49:16.759Z,35.99
2023-03-26T15:52:41.959Z,36.30
2023-03-26T15:56:23.863Z,36.60
2023-03-26T16:00:12.511Z,36.57
2023-03-26T16:03:44.747Z,36.63
2023-03-26T16:07:29.125Z,36.91
2023-03-26T16:10:58.042Z,36.72
2023-03-26T16:14:24.118Z,37.78
2023-03-26T16:18:05.209Z,37.24
2023-03-26T16:21:46.437Z,37.58
2023-03-26T16:25:28.544Z,37.76
2023-03-26T16:28:52.974Z,38.41
2023-03-26T16:32:41.598Z,37.98
2023-03-26T16:36:18.467Z,38.26
2023-03-26T16:39:44.267Z,37.99
2023-03-26T16:43:19.111Z,38.35
2023-03-26T16:46:56.580Z,38.81
2023-03-26T16:50:26.005Z,38.95
2023-03-26T16:54:05.376Z,39.20
2023-03-26T16:57:37.036Z,41.59
2023-03-26T17:01:17.644Z,43.92
2023-03-26T17:04:47.511Z,44.03
2023-03-26T17:08:36.068Z,44.38
2023-03-26T17:12:24.185Z,42.67
2023-03-26T17:16:14.592Z,38.56
2023-03-26T17:19:44.750Z,39.06
2023-03-26T17:23:12.521Z,39.80
2023-03-26T17:26:46.898Z,40.61
2023-03-26T17:30:23.561Z,40.82
2023-03-26T17:33:45.542Z,40.76
2023-03-26T17:37:27.954Z,41.20
2023-03-26T17:40:56.115Z,41.27
2023-03-26T17:44:36.610Z,41.20
2023-03-26T17:48:09.633Z,41.29
2023-03-26T17:51:46.496Z,41.14
2023-03-26T17:55:09.982Z,41.54
2023-03-26T17:58:42.839Z,41.49
2023-03-26T18:02:17.643Z,41.59
2023-03-26T18:05:42.306Z,42.97
2023-03-26T18:09:24.902Z,46.91
2023-03-26T18:12:55.620Z,47.71
2023-03-26T18:16:20.991Z,45.97
2023-03-26T18:20:09.787Z,46.13
2023-03-26T18:23:49.120Z,43.17
2023-03-26T18:27:12.428Z,40.15
2023-03-26T18:30:46.973Z,41.14
2023-03-26T18:34:24.366Z,41.82
2023-03-26T18:37:53.508Z,42.32
2023-03-26T18:41:41.826Z,42.26
2023-03-26T18:45:12.118Z,43.14
2023-03-26T18:48:33.894Z,42.88
2023-03-26T18:51:58.551Z,43.56
2023-03-26T18:55:20.295Z,43.76
2023-03-26T18:58:43.867Z,43.49
2023-03-26T19:02:13.137Z,43.69
2023-03-26T19:05:38.506Z,43.54
2023-03-26T19:09:30.269Z,43.71
2023-03-26T19:12:58.121Z,44.17
2023-03-26T19:16:24.210Z,44.50
2023-03-26T19:19:48.359Z,44.69
2023-03-26T19:23:15.122Z,44.41
2023-03-26T19:26:38.971Z,44.99
2023-03-26T19:30:05.610Z,44.23
2023-03-26T19:33:34.666Z,44.09
2023-03-26T19:37:02.926Z,43.93
2023-03-26T19:40:30.066Z,44.08
2023-03-26T19:43:55.950Z,44.94
2023-03-26T19:47:19.688Z,44.84
2023-03-26T19:50:45.944Z,44.52
2023-03-26T19:54:19.252Z,44.17
2023-03-26T19:57:41.108Z,43.99
2023-03-26T20:01:04.548Z,44.92
2023-03-26T20:04:27.270Z,44.67
2023-03-26T20:07:52.658Z,44.52
2023-03-26T20:11:33.240Z,44.68
2023-03-26T20:15:00.135Z,45.17
2023-03-26T20:18:25.638Z,45.65
2023-03-26T20:21:47.879Z,44.97
2023-03-26T20:25:33.794Z,45.60
2023-03-26T20:28:56.168Z,45.37
2023-03-26T20:32:23.619Z,45.40
2023-03-26T20:35:49.483Z,45.80
2023-03-26T20:39:13.728Z,46.55
2023-03-26T20:42:36.507Z,46.25
2023-03-26T20:46:00.827Z,46.08
2023-03-26T20:49:22.437Z,46.48
2023-03-26T20:52:44.569Z,46.69
2023-03-26T20:56:20.052Z,47.01
2023-03-26T20:59:42.150Z,46.93
2023-03-26T21:03:08.541Z,46.77
2023-03-26T21:06:30.273Z,46.84
2023-03-26T21:09:57.913Z,46.84
2023-03-26T21:13:53.913Z,46.75
2023-03-26T21:17:18.625Z,47.05
2023-03-26T21:20:48.016Z,47.02
2023-03-26T21:24:43.367Z,46.57
2023-03-26T21:28:29.162Z,47.39
2023-03-26T21:32:01.576Z,47.11
2023-03-26T21:35:25.856Z,47.15
2023-03-26T21:38:47.934Z,47.33
2023-03-26T21:42:11.139Z,48.48
2023-03-26T21:45:35.699Z,48.07
2023-03-26T21:49:00.237Z,51.67
2023-03-26T21:52:27.373Z,53.91
2023-03-26T21:55:54.924Z,58.12
2023-03-26T21:59:37.799Z,60.96
2023-03-26T22:03:11.650Z,65.07
2023-03-26T22:06:46.192Z,66.95
2023-03-26T22:10:10.023Z,67.93
2023-03-26T22:13:31.618Z,69.00
2023-03-26T22:16:53.283Z,69.00
2023-03-26T22:20:21.142Z,66.99
2023-03-26T22:23:50.131Z,64.76
2023-03-26T22:27:13.609Z,66.35
2023-03-26T22:30:37.521Z,68.03
2023-03-26T22:34:01.906Z,70.36
2023-03-26T22:37:23.815Z,70.09
2023-03-26T22:40:56.217Z,69.71
2023-03-26T22:44:20.776Z,70.04
2023-03-26T22:47:42.603Z,71.31
2023-03-26T22:51:06.490Z,70.47
2023-03-26T22:54:30.464Z,72.27
2023-03-26T22:57:52.576Z,71.87
2023-03-26T23:01:18.084Z,71.98
2023-03-26T23:04:39.821Z,72.12
2023-03-26T23:08:01.489Z,74.31
2023-03-26T23:11:26.354Z,74.78
2023-03-26T23:14:53.070Z,74.11
2023-03-26T23:18:14.668Z,73.79
2023-03-26T23:21:37.802Z,75.40
2023-03-26T23:24:59.416Z,74.29
2023-03-26T23:28:21.798Z,74.99
2023-03-26T23:31:43.457Z,75.05
2023-03-26T23:35:06.122Z,74.55
2023-03-26T23:38:29.198Z,74.20
2023-03-26T23:42:06.000Z,75.16
2023-03-26T23:45:30.875Z,75.67
2023-03-26T23:48:53.245Z,75.60
2023-03-26T23:52:17.220Z,75.34
2023-03-26T23:55:41.316Z,75.86
2023-03-26T23:59:06.102Z,76.89
